Time;durP1;ratioP1;P1;durP2;ratioP2;P2;SDS_P1;SDS_P2;PMS_P1;PMS_P2;Temp;Humidity;BMP_temperature;BMP_pressure;BME280_temperature;BME280_humidity;BME280_pressure;Samples;Min_cycle;Max_cycle;Signal;HPM_P1;HPM_P2
2023/03/28 00:00:49;;;;;;;15.98;2.00;;;2.20;99.90;;;;;;5092807;28;20525;-48
2023/03/28 00:03:18;;;;;;;7.20;1.02;;;2.30;99.90;;;;;;5092564;28;20152;-49
2023/03/28 00:05:47;;;;;;;9.60;1.70;;;2.20;99.90;;;;;;5092529;28;20116;-48
2023/03/28 00:08:17;;;;;;;23.30;4.25;;;2.20;99.90;;;;;;5091168;28;20101;-48
2023/03/28 00:10:43;;;;;;;9.20;1.52;;;2.20;99.90;;;;;;5092391;28;20039;-48
2023/03/28 00:13:10;;;;;;;9.75;1.45;;;2.20;99.90;;;;;;5092787;28;20437;-48
2023/03/28 00:15:40;;;;;;;13.80;3.10;;;2.20;99.90;;;;;;5092373;28;20044;-48
2023/03/28 00:18:10;;;;;;;12.98;2.47;;;2.30;99.90;;;;;;5092439;28;20449;-49
2023/03/28 00:20:42;;;;;;;9.82;1.60;;;2.20;99.90;;;;;;5092248;28;20377;-51
2023/03/28 00:23:10;;;;;;;6.38;1.50;;;2.20;99.90;;;;;;5092596;28;20396;-48
2023/03/28 00:25:39;;;;;;;10.88;1.50;;;2.20;99.90;;;;;;5092278;28;20476;-48
2023/03/28 00:28:05;;;;;;;12.93;2.25;;;2.30;99.90;;;;;;5092296;28;20036;-49
2023/03/28 00:30:30;;;;;;;5.43;1.50;;;2.20;99.90;;;;;;5092269;28;20037;-48
2023/03/28 00:32:56;;;;;;;17.38;1.60;;;2.20;99.90;;;;;;5090852;28;20189;-47
2023/03/28 00:35:22;;;;;;;6.28;1.30;;;2.10;99.90;;;;;;5091731;28;20666;-48
2023/03/28 00:37:49;;;;;;;13.98;1.58;;;2.10;99.90;;;;;;5092168;28;20036;-48
2023/03/28 00:40:15;;;;;;;11.98;1.50;;;2.10;99.90;;;;;;5092128;28;20070;-48
2023/03/28 00:42:41;;;;;;;9.65;1.30;;;2.10;99.90;;;;;;5092185;28;20043;-48
2023/03/28 00:45:11;;;;;;;11.32;1.80;;;2.10;99.90;;;;;;5092029;28;20043;-49
2023/03/28 00:47:57;;;;;;;10.63;1.70;;;2.00;99.90;;;;;;5092010;28;20032;-47
2023/03/28 00:50:29;;;;;;;7.47;1.23;;;2.10;99.90;;;;;;5088988;28;20048;-49
2023/03/28 00:53:05;;;;;;;14.77;1.75;;;2.00;99.90;;;;;;5091785;28;20048;-49
2023/03/28 00:55:34;;;;;;;9.45;1.40;;;2.00;99.90;;;;;;5091918;28;20040;-47
2023/03/28 00:58:02;;;;;;;7.88;1.60;;;2.00;99.90;;;;;;5091830;28;20044;-49
2023/03/28 01:00:29;;;;;;;6.13;1.27;;;2.00;99.90;;;;;;5091567;28;20046;-47
2023/03/28 01:02:57;;;;;;;10.00;1.33;;;1.90;99.90;;;;;;5092050;28;20044;-49
2023/03/28 01:05:26;;;;;;;10.00;1.52;;;1.80;99.90;;;;;;5091768;28;20085;-48
2023/03/28 01:07:57;;;;;;;8.43;1.25;;;1.80;99.90;;;;;;5091769;28;20055;-47
2023/03/28 01:10:24;;;;;;;7.63;1.25;;;1.70;99.90;;;;;;5091750;28;20381;-47
2023/03/28 01:12:52;;;;;;;7.00;1.42;;;1.60;99.90;;;;;;5091671;28;20082;-47
2023/03/28 01:15:18;;;;;;;9.43;2.95;;;1.60;99.90;;;;;;5091836;28;20123;-48
2023/03/28 01:17:45;;;;;;;13.00;3.65;;;1.50;99.90;;;;;;5091765;28;20115;-48
2023/03/28 01:20:57;;;;;;;11.60;1.40;;;1.50;99.90;;;;;;5091721;28;20097;-47
2023/03/28 01:23:23;;;;;;;11.68;3.45;;;1.40;99.90;;;;;;5075350;28;20105;-47
2023/03/28 01:26:16;;;;;;;10.18;1.65;;;1.40;99.90;;;;;;5091429;28;20477;-47
2023/03/28 01:29:00;;;;;;;4.55;1.25;;;1.40;99.90;;;;;;5091684;28;20085;-48
2023/03/28 01:31:31;;;;;;;6.97;1.30;;;1.30;99.90;;;;;;5090063;28;20629;-49
2023/03/28 01:34:35;;;;;;;7.65;1.40;;;1.40;99.90;;;;;;5091612;28;20388;-49
2023/03/28 01:37:18;;;;;;;8.90;1.00;;;1.40;99.90;;;;;;5091658;28;20052;-47
2023/03/28 01:39:50;;;;;;;7.75;1.00;;;1.40;99.90;;;;;;5091456;28;20438;-48
2023/03/28 01:42:30;;;;;;;6.63;1.20;;;1.40;99.90;;;;;;5091177;28;20059;-48
2023/03/28 01:45:31;;;;;;;10.77;1.73;;;1.40;99.90;;;;;;5091618;28;20087;-48
2023/03/28 01:48:09;;;;;;;7.60;1.30;;;1.40;99.90;;;;;;5087137;28;20055;-48
2023/03/28 01:51:06;;;;;;;12.23;1.48;;;1.30;99.90;;;;;;5091223;28;20130;-47
2023/03/28 01:53:44;;;;;;;10.52;1.67;;;1.20;99.90;;;;;;5091656;28;20091;-50
2023/03/28 01:56:20;;;;;;;9.77;1.27;;;1.20;99.90;;;;;;5091374;28;20044;-48
2023/03/28 01:59:16;;;;;;;10.60;1.75;;;1.10;99.90;;;;;;5091251;28;20040;-49
2023/03/28 02:01:50;;;;;;;6.03;1.50;;;1.00;99.90;;;;;;5086660;28;20052;-51
2023/03/28 02:04:19;;;;;;;10.38;1.45;;;1.00;99.90;;;;;;5093355;28;20229;-50
2023/03/28 02:06:47;;;;;;;8.65;1.23;;;0.90;99.90;;;;;;5095013;28;20377;-51
2023/03/28 02:09:14;;;;;;;8.60;2.22;;;1.00;99.90;;;;;;5094822;28;20043;-48
2023/03/28 02:11:41;;;;;;;7.93;1.40;;;0.90;99.90;;;;;;5094949;28;20044;-50
2023/03/28 02:14:16;;;;;;;9.77;1.90;;;0.80;99.90;;;;;;5093333;28;20496;-50
2023/03/28 02:16:44;;;;;;;9.13;1.80;;;0.90;99.90;;;;;;5094762;28;20044;-49
2023/03/28 02:19:12;;;;;;;9.20;1.67;;;0.80;99.90;;;;;;5094693;28;20040;-48
2023/03/28 02:21:42;;;;;;;5.25;1.20;;;0.80;99.90;;;;;;5094480;28;20101;-49
2023/03/28 02:24:11;;;;;;;9.30;1.65;;;0.80;99.90;;;;;;5094534;28;20488;-49
2023/03/28 02:26:37;;;;;;;10.77;1.55;;;0.90;99.90;;;;;;5094425;28;20044;-49
2023/03/28 02:29:05;;;;;;;9.45;1.48;;;0.80;99.90;;;;;;5094483;28;20044;-48
2023/03/28 02:31:31;;;;;;;8.88;2.05;;;0.90;99.90;;;;;;5094145;28;20040;-50
2023/03/28 02:33:57;;;;;;;11.02;1.45;;;0.80;99.90;;;;;;5094280;28;20479;-47
2023/03/28 02:36:32;;;;;;;6.45;1.63;;;0.70;99.90;;;;;;5094049;28;20063;-48
2023/03/28 02:39:18;;;;;;;12.07;1.98;;;0.80;99.90;;;;;;5094276;28;20044;-48
2023/03/28 02:42:09;;;;;;;10.52;1.85;;;0.70;99.90;;;;;;5094182;28;20110;-49
2023/03/28 02:45:02;;;;;;;10.68;1.35;;;0.70;99.90;;;;;;5094035;28;20044;-49
2023/03/28 02:47:56;;;;;;;8.77;1.48;;;0.80;99.90;;;;;;5094242;28;20043;-48
2023/03/28 02:50:58;;;;;;;10.00;1.42;;;0.80;99.90;;;;;;5091356;28;20046;-47
2023/03/28 02:53:43;;;;;;;10.50;1.30;;;0.70;99.90;;;;;;5070802;28;20063;-48
2023/03/28 02:56:14;;;;;;;9.88;1.92;;;0.80;99.90;;;;;;5093889;28;20379;-48
2023/03/28 02:58:57;;;;;;;10.73;1.67;;;0.80;99.90;;;;;;5093008;28;20048;-49
2023/03/28 03:01:27;;;;;;;10.13;1.85;;;0.70;99.90;;;;;;5093887;28;20043;-50
2023/03/28 03:03:54;;;;;;;12.45;1.90;;;0.80;99.90;;;;;;5094161;28;20036;-49
2023/03/28 03:06:20;;;;;;;10.35;1.50;;;0.60;99.90;;;;;;5093656;28;20047;-50
2023/03/28 03:08:45;;;;;;;9.20;1.48;;;0.80;99.90;;;;;;5093570;28;20551;-49
2023/03/28 03:11:11;;;;;;;5.20;1.30;;;0.70;99.90;;;;;;5093601;28;20181;-49
2023/03/28 03:13:37;;;;;;;12.40;1.70;;;0.70;99.90;;;;;;5093415;28;20063;-49
2023/03/28 03:16:04;;;;;;;6.25;1.80;;;0.70;99.90;;;;;;5093579;28;20051;-48
2023/03/28 03:18:29;;;;;;;9.13;1.20;;;0.80;99.90;;;;;;5093578;28;20048;-47
2023/03/28 03:20:55;;;;;;;7.30;1.10;;;0.60;99.90;;;;;;5093578;28;20166;-48
2023/03/28 03:23:21;;;;;;;11.15;1.42;;;0.70;99.90;;;;;;5092052;28;20067;-48
2023/03/28 03:25:49;;;;;;;10.73;2.78;;;0.70;99.90;;;;;;5093567;28;20036;-49
2023/03/28 03:28:15;;;;;;;14.50;2.75;;;0.60;99.90;;;;;;5093084;28;20119;-48
2023/03/28 03:30:42;;;;;;;8.57;1.42;;;0.70;99.90;;;;;;5093670;28;20089;-48
2023/03/28 03:33:09;;;;;;;16.38;2.58;;;0.60;99.90;;;;;;5093079;28;20048;-49
2023/03/28 03:35:36;;;;;;;14.05;2.47;;;0.60;99.90;;;;;;5093162;28;20145;-52
2023/03/28 03:38:03;;;;;;;7.63;1.15;;;0.60;99.90;;;;;;5092956;28;20048;-49
2023/03/28 03:40:28;;;;;;;11.40;2.03;;;0.50;99.90;;;;;;5093070;28;20130;-48
2023/03/28 03:42:54;;;;;;;6.75;1.20;;;0.60;99.90;;;;;;5093052;28;20523;-48
2023/03/28 03:45:20;;;;;;;7.53;1.40;;;0.60;99.90;;;;;;5092977;28;20442;-48
2023/03/28 03:47:46;;;;;;;6.72;1.25;;;0.60;99.90;;;;;;5092927;28;20075;-49
2023/03/28 03:50:12;;;;;;;10.13;2.40;;;0.60;99.90;;;;;;5092699;28;20082;-48
2023/03/28 03:52:38;;;;;;;8.07;2.10;;;0.50;99.90;;;;;;5092780;28;20039;-48
2023/03/28 03:55:05;;;;;;;9.10;1.83;;;0.60;99.90;;;;;;5092702;28;20119;-51
2023/03/28 03:57:31;;;;;;;9.75;1.77;;;0.50;99.90;;;;;;5092369;28;20502;-49
2023/03/28 03:59:57;;;;;;;10.05;1.58;;;0.50;99.90;;;;;;5093141;28;20467;-48
2023/03/28 04:02:23;;;;;;;13.73;1.90;;;0.50;99.90;;;;;;5092759;28;20083;-49
2023/03/28 04:04:48;;;;;;;9.35;2.03;;;0.60;99.90;;;;;;5092498;28;20051;-48
2023/03/28 04:07:15;;;;;;;9.32;1.60;;;0.50;99.90;;;;;;5092562;28;20044;-48
2023/03/28 04:09:40;;;;;;;8.32;1.40;;;0.70;99.90;;;;;;5092762;28;20563;-49
2023/03/28 04:12:07;;;;;;;10.10;1.50;;;0.70;99.90;;;;;;5092281;28;20123;-50
2023/03/28 04:14:32;;;;;;;8.18;1.70;;;0.40;99.90;;;;;;5092436;28;20119;-48
2023/03/28 04:16:58;;;;;;;13.93;1.80;;;0.60;99.90;;;;;;5091225;28;20143;-48
2023/03/28 04:19:24;;;;;;;9.38;1.40;;;0.60;99.90;;;;;;5092277;28;20032;-48
2023/03/28 04:21:55;;;;;;;8.93;1.45;;;0.50;99.90;;;;;;5092447;28;20039;-48
2023/03/28 04:24:25;;;;;;;9.77;1.70;;;0.60;99.90;;;;;;5092273;28;20047;-48
2023/03/28 04:26:54;;;;;;;14.13;2.15;;;0.50;99.90;;;;;;5091598;28;20526;-49
2023/03/28 04:29:30;;;;;;;11.68;1.83;;;0.50;99.90;;;;;;5092509;28;20170;-51
2023/03/28 04:31:59;;;;;;;12.55;2.42;;;0.60;99.90;;;;;;5092447;28;20046;-48
2023/03/28 04:34:30;;;;;;;9.20;1.83;;;0.60;99.90;;;;;;5092223;28;20035;-46
2023/03/28 04:37:00;;;;;;;9.43;1.47;;;0.60;99.90;;;;;;5091985;28;20109;-48
2023/03/28 04:39:30;;;;;;;10.45;1.60;;;0.60;99.90;;;;;;5092485;28;20047;-47
2023/03/28 04:42:00;;;;;;;13.57;1.75;;;0.70;99.90;;;;;;5090904;28;20051;-47
2023/03/28 04:44:27;;;;;;;10.05;1.70;;;0.50;99.90;;;;;;5092092;28;20040;-48
2023/03/28 04:46:53;;;;;;;9.63;2.42;;;0.50;99.90;;;;;;5091983;28;20078;-48
2023/03/28 04:49:20;;;;;;;8.75;1.90;;;0.70;99.90;;;;;;5091627;28;20093;-48
2023/03/28 04:51:47;;;;;;;8.15;1.40;;;0.80;99.90;;;;;;5090556;28;20051;-47
2023/03/28 04:54:13;;;;;;;10.48;2.67;;;0.60;99.90;;;;;;5090757;28;20059;-48
2023/03/28 04:56:39;;;;;;;11.27;1.85;;;0.80;99.90;;;;;;5092195;28;20423;-49
2023/03/28 04:59:05;;;;;;;10.48;1.95;;;0.70;99.90;;;;;;5091716;28;20464;-49
2023/03/28 05:01:31;;;;;;;7.80;1.33;;;0.90;99.90;;;;;;5092042;28;20093;-50
2023/03/28 05:03:57;;;;;;;10.98;2.13;;;0.90;99.90;;;;;;5092029;28;20036;-48
2023/03/28 05:06:24;;;;;;;10.63;2.25;;;0.70;99.90;;;;;;5091871;28;20123;-47
2023/03/28 05:08:50;;;;;;;10.68;3.00;;;0.70;99.90;;;;;;5091690;28;20044;-52
2023/03/28 05:11:16;;;;;;;7.75;2.10;;;0.70;99.90;;;;;;5091943;28;20416;-47
2023/03/28 05:13:42;;;;;;;7.15;1.95;;;0.90;99.90;;;;;;5091665;28;20039;-50
2023/03/28 05:16:08;;;;;;;14.95;3.03;;;1.00;99.90;;;;;;5091635;28;20369;-47
2023/03/28 05:18:33;;;;;;;10.65;2.15;;;1.00;99.90;;;;;;5091549;28;20523;-49
2023/03/28 05:20:59;;;;;;;8.75;1.83;;;1.00;99.90;;;;;;5091529;28;20032;-52
2023/03/28 05:23:25;;;;;;;11.77;1.77;;;1.10;99.90;;;;;;5091830;28;20032;-48
2023/03/28 05:25:52;;;;;;;14.98;2.25;;;0.90;99.90;;;;;;5090373;28;20043;-47
2023/03/28 05:28:18;;;;;;;13.57;2.45;;;0.90;99.90;;;;;;5091840;28;20123;-50
2023/03/28 05:30:43;;;;;;;12.93;2.20;;;1.10;99.90;;;;;;5091404;28;20532;-49
2023/03/28 05:33:09;;;;;;;8.30;1.67;;;1.30;99.90;;;;;;5091584;28;20048;-51
2023/03/28 05:35:36;;;;;;;4.93;1.38;;;1.20;99.90;;;;;;5091328;28;20135;-51
2023/03/28 05:38:02;;;;;;;18.50;3.08;;;1.40;99.90;;;;;;5091527;28;20062;-49
2023/03/28 05:40:28;;;;;;;13.73;2.15;;;1.30;99.90;;;;;;5095346;28;20090;-50
2023/03/28 05:42:54;;;;;;;9.52;1.88;;;1.60;99.90;;;;;;5095245;28;20032;-49
2023/03/28 05:45:20;;;;;;;7.85;1.95;;;1.40;99.90;;;;;;5095393;28;20040;-49
2023/03/28 05:47:48;;;;;;;10.70;2.10;;;1.50;99.90;;;;;;5095277;28;20036;-47
2023/03/28 05:50:14;;;;;;;10.00;1.52;;;1.70;99.90;;;;;;5094730;28;20075;-51
2023/03/28 05:52:40;;;;;;;12.10;2.42;;;1.40;99.90;;;;;;5086243;28;20501;-47
2023/03/28 05:55:06;;;;;;;13.18;3.35;;;1.50;99.90;;;;;;5082125;28;20055;-49
2023/03/28 05:57:33;;;;;;;14.70;2.35;;;1.70;99.90;;;;;;5075270;28;20612;-48
2023/03/28 05:59:59;;;;;;;9.73;1.90;;;1.60;99.90;;;;;;5073037;28;20074;-48
2023/03/28 06:02:25;;;;;;;14.05;2.90;;;1.90;99.90;;;;;;5073115;28;20123;-48
2023/03/28 06:04:54;;;;;;;8.63;1.92;;;2.00;99.90;;;;;;5071834;28;20463;-47
2023/03/28 06:07:20;;;;;;;7.15;1.70;;;1.90;99.90;;;;;;5073478;28;20093;-49
2023/03/28 06:09:47;;;;;;;10.13;1.75;;;2.00;99.90;;;;;;5086541;28;20047;-48
2023/03/28 06:12:12;;;;;;;11.20;2.00;;;2.10;99.90;;;;;;5093518;28;20047;-47
2023/03/28 06:14:38;;;;;;;12.43;2.65;;;1.80;99.90;;;;;;5093329;28;20036;-48
2023/03/28 06:17:06;;;;;;;13.65;2.13;;;1.90;99.90;;;;;;5093102;28;20044;-48
2023/03/28 06:19:32;;;;;;;11.45;2.17;;;2.20;99.90;;;;;;5092685;28;20492;-52
2023/03/28 06:21:57;;;;;;;12.02;2.05;;;1.90;99.90;;;;;;5091904;28;20055;-47
2023/03/28 06:24:23;;;;;;;9.50;2.35;;;2.00;99.90;;;;;;5093135;28;20032;-48
2023/03/28 06:26:49;;;;;;;12.27;1.95;;;2.10;99.90;;;;;;5093243;28;20086;-50
2023/03/28 06:29:15;;;;;;;9.43;1.80;;;2.00;99.90;;;;;;5092913;28;20044;-47
2023/03/28 06:31:40;;;;;;;11.70;2.33;;;2.00;99.90;;;;;;5092713;28;20091;-49
2023/03/28 06:34:06;;;;;;;12.05;2.08;;;2.00;99.90;;;;;;5093113;28;20449;-51
2023/03/28 06:36:32;;;;;;;11.00;1.67;;;1.90;99.90;;;;;;5088784;28;20064;-49
2023/03/28 06:38:58;;;;;;;8.48;1.83;;;1.90;99.90;;;;;;5072807;28;20083;-48
2023/03/28 06:41:24;;;;;;;8.45;2.08;;;1.90;99.90;;;;;;5072559;28;20044;-52
2023/03/28 06:43:49;;;;;;;7.90;1.65;;;2.10;99.90;;;;;;5072575;28;20044;-48
2023/03/28 06:46:15;;;;;;;9.52;2.40;;;2.20;99.90;;;;;;5072371;28;20040;-49
2023/03/28 06:48:41;;;;;;;11.45;2.40;;;2.10;99.90;;;;;;5078653;28;20048;-51
2023/03/28 06:51:07;;;;;;;10.93;2.17;;;2.30;99.90;;;;;;5091821;28;20062;-48
2023/03/28 06:53:34;;;;;;;8.90;1.65;;;2.30;99.90;;;;;;5092371;28;20476;-49
2023/03/28 06:56:01;;;;;;;10.88;1.65;;;2.40;99.90;;;;;;5092025;28;20114;-47
2023/03/28 06:58:27;;;;;;;8.88;2.35;;;2.70;99.90;;;;;;5092548;28;20036;-49
2023/03/28 07:00:53;;;;;;;6.05;1.70;;;2.60;99.90;;;;;;5092356;28;20067;-48
2023/03/28 07:03:19;;;;;;;15.82;2.97;;;2.80;99.90;;;;;;5092323;28;20040;-50
2023/03/28 07:05:45;;;;;;;11.60;2.20;;;3.00;99.90;;;;;;5092287;28;20070;-51
2023/03/28 07:08:12;;;;;;;12.48;2.80;;;3.20;99.90;;;;;;5092261;28;20050;-48
2023/03/28 07:10:39;;;;;;;8.73;1.92;;;3.30;99.90;;;;;;5091975;28;20036;-48
2023/03/28 07:13:05;;;;;;;10.52;2.45;;;3.30;99.90;;;;;;5092014;28;20044;-48
2023/03/28 07:15:31;;;;;;;14.00;2.03;;;3.20;99.90;;;;;;5090646;28;20036;-50
2023/03/28 07:17:57;;;;;;;6.80;1.92;;;3.20;99.90;;;;;;5092343;28;20074;-50
2023/03/28 07:20:23;;;;;;;9.18;2.10;;;3.30;99.90;;;;;;5092622;28;20073;-49
2023/03/28 07:22:50;;;;;;;9.35;2.22;;;3.40;99.90;;;;;;5093058;28;20036;-49
2023/03/28 07:25:16;;;;;;;7.95;1.70;;;3.40;99.90;;;;;;5092804;28;20040;-48
2023/03/28 07:27:42;;;;;;;11.93;2.22;;;3.30;99.90;;;;;;5093100;28;20040;-48
2023/03/28 07:30:08;;;;;;;8.30;1.88;;;3.60;99.90;;;;;;5092376;28;20047;-49
2023/03/28 07:32:35;;;;;;;8.10;2.17;;;3.70;99.90;;;;;;5092563;28;20479;-50
2023/03/28 07:35:05;;;;;;;4.93;1.70;;;3.70;99.90;;;;;;5092996;28;20052;-49
2023/03/28 07:37:32;;;;;;;9.05;1.83;;;3.70;99.90;;;;;;5092924;28;20506;-48
2023/03/28 07:39:59;;;;;;;7.45;1.75;;;4.00;99.90;;;;;;5092281;28;20106;-48
2023/03/28 07:42:25;;;;;;;9.38;2.00;;;4.10;99.90;;;;;;5093065;28;20052;-48
2023/03/28 07:44:52;;;;;;;6.40;1.23;;;4.20;99.90;;;;;;5093230;28;20115;-49
2023/03/28 07:47:18;;;;;;;10.80;1.98;;;4.30;99.90;;;;;;5091748;28;20588;-49
2023/03/28 07:49:44;;;;;;;9.77;1.88;;;4.50;99.90;;;;;;5092892;28;20208;-51
2023/03/28 07:52:11;;;;;;;8.50;2.35;;;4.50;99.90;;;;;;5092810;28;20369;-53
2023/03/28 07:54:37;;;;;;;8.55;3.00;;;4.60;99.90;;;;;;5093094;28;20040;-48
2023/03/28 07:57:03;;;;;;;8.48;1.30;;;4.80;99.90;;;;;;5092844;28;20047;-51
2023/03/28 07:59:29;;;;;;;5.88;1.65;;;4.90;99.90;;;;;;5093116;28;20115;-50
2023/03/28 08:01:54;;;;;;;10.40;1.52;;;5.00;99.90;;;;;;5091009;28;20428;-49
2023/03/28 08:04:20;;;;;;;5.43;1.23;;;5.10;99.90;;;;;;5092654;28;20491;-49
2023/03/28 08:06:46;;;;;;;8.65;1.88;;;5.20;99.90;;;;;;5093073;28;20035;-53
2023/03/28 08:09:14;;;;;;;5.40;1.20;;;5.20;99.90;;;;;;5092699;28;20388;-51
2023/03/28 08:11:42;;;;;;;7.60;1.50;;;5.30;99.90;;;;;;5092442;28;20050;-49
2023/03/28 08:14:14;;;;;;;7.60;1.55;;;5.50;99.90;;;;;;5092689;28;20468;-48
2023/03/28 08:16:42;;;;;;;3.60;1.00;;;5.50;99.90;;;;;;5092610;28;20044;-50
2023/03/28 08:19:08;;;;;;;6.78;1.00;;;5.60;99.90;;;;;;5092473;28;20040;-48
2023/03/28 08:21:34;;;;;;;7.25;1.30;;;5.70;99.90;;;;;;5092266;28;20119;-53
2023/03/28 08:24:01;;;;;;;5.82;1.58;;;5.70;99.90;;;;;;5092370;28;20070;-48
2023/03/28 08:26:27;;;;;;;8.68;1.20;;;5.70;99.90;;;;;;5092239;28;20040;-49
2023/03/28 08:28:57;;;;;;;4.00;1.13;;;5.80;99.90;;;;;;5092242;28;20040;-48
2023/03/28 08:31:25;;;;;;;3.90;1.00;;;5.80;99.90;;;;;;5092281;28;20044;-48
2023/03/28 08:33:52;;;;;;;4.88;1.30;;;5.90;99.90;;;;;;5091276;28;20538;-51
2023/03/28 08:36:20;;;;;;;6.93;2.30;;;5.90;99.90;;;;;;5092078;28;20089;-51
2023/03/28 08:38:49;;;;;;;3.45;0.95;;;5.90;99.90;;;;;;5090800;28;20051;-48
2023/03/28 08:41:45;;;;;;;3.20;0.80;;;5.80;99.90;;;;;;5091981;28;20078;-49
2023/03/28 08:44:48;;;;;;;9.02;1.50;;;5.90;99.90;;;;;;5091659;28;20036;-49
2023/03/28 08:47:49;;;;;;;6.50;1.10;;;5.80;99.90;;;;;;5091999;28;20121;-50
2023/03/28 08:50:36;;;;;;;7.70;1.27;;;5.90;99.90;;;;;;5068895;28;20051;-50
2023/03/28 08:53:03;;;;;;;7.03;1.30;;;5.90;99.90;;;;;;5084075;28;20407;-48
2023/03/28 08:55:32;;;;;;;8.13;1.65;;;5.80;99.90;;;;;;5091967;28;20483;-50
2023/03/28 08:57:58;;;;;;;6.53;1.52;;;5.70;99.90;;;;;;5091804;28;20040;-49
2023/03/28 09:00:35;;;;;;;6.45;1.30;;;5.90;99.90;;;;;;5091873;28;20127;-51
2023/03/28 09:03:08;;;;;;;6.72;1.63;;;5.90;99.90;;;;;;5091964;28;20040;-51
2023/03/28 09:05:45;;;;;;;6.03;1.40;;;6.10;99.90;;;;;;5091782;28;20036;-49
2023/03/28 09:08:42;;;;;;;5.55;1.20;;;6.10;99.90;;;;;;5090350;28;20455;-49
2023/03/28 09:11:20;;;;;;;9.05;1.50;;;6.10;99.90;;;;;;5090741;28;20081;-50
2023/03/28 09:13:59;;;;;;;4.43;1.23;;;6.10;99.90;;;;;;5094679;28;20046;-49
2023/03/28 09:16:40;;;;;;;5.00;1.20;;;6.30;99.90;;;;;;5094386;28;20165;-53
2023/03/28 09:19:27;;;;;;;10.65;1.55;;;6.40;99.90;;;;;;5095458;28;20047;-49
2023/03/28 09:22:09;;;;;;;5.90;1.20;;;6.60;99.90;;;;;;5095885;28;20048;-52
2023/03/28 09:24:40;;;;;;;;;;;6.90;99.90;;;;;;5096046;28;20051;-52
2023/03/28 09:27:16;;;;;;;6.90;1.35;;;6.80;99.90;;;;;;5095722;28;19916;-48
2023/03/28 09:29:44;;;;;;;5.68;1.20;;;6.70;99.90;;;;;;5095975;28;20135;-52
2023/03/28 09:32:29;;;;;;;5.00;1.05;;;6.40;99.90;;;;;;5095492;28;20118;-49
2023/03/28 09:34:55;;;;;;;4.55;0.90;;;6.40;99.90;;;;;;5095447;28;20040;-51
2023/03/28 09:37:38;;;;;;;4.65;1.00;;;6.50;99.90;;;;;;5095312;28;20052;-52
2023/03/28 09:40:19;;;;;;;7.57;1.05;;;6.70;99.90;;;;;;5095396;28;20483;-49
2023/03/28 09:43:00;;;;;;;4.65;1.30;;;6.70;99.90;;;;;;5095263;28;20044;-49
2023/03/28 09:45:35;;;;;;;5.47;1.13;;;6.60;99.90;;;;;;5095334;28;20048;-51
2023/03/28 09:48:03;;;;;;;4.47;1.00;;;6.80;99.90;;;;;;5095194;28;20097;-49
2023/03/28 09:50:29;;;;;;;3.80;1.10;;;6.90;99.90;;;;;;5095284;28;20054;-51
2023/03/28 09:52:56;;;;;;;4.85;1.15;;;6.80;99.90;;;;;;5094964;28;20071;-50
2023/03/28 09:55:28;;;;;;;3.75;1.05;;;6.70;99.90;;;;;;5095401;28;20040;-49
2023/03/28 09:58:08;;;;;;;5.03;1.10;;;6.80;99.90;;;;;;5094871;28;20040;-49
2023/03/28 10:00:55;;;;;;;5.22;1.45;;;7.00;99.90;;;;;;5095175;28;20048;-49
2023/03/28 10:03:28;;;;;;;2.80;0.82;;;7.00;99.90;;;;;;5094684;28;20091;-48
2023/03/28 10:06:00;;;;;;;4.78;1.00;;;6.70;99.90;;;;;;5094054;28;20062;-48
2023/03/28 10:08:39;;;;;;;3.17;0.85;;;6.90;99.90;;;;;;5094804;28;20046;-48
2023/03/28 10:11:13;;;;;;;4.28;1.10;;;6.80;99.90;;;;;;5094892;28;20055;-47
2023/03/28 10:13:42;;;;;;;3.75;0.90;;;6.80;99.90;;;;;;5094931;28;20050;-49
2023/03/28 10:16:12;;;;;;;5.00;1.02;;;6.80;99.90;;;;;;5094800;28;20043;-52
2023/03/28 10:18:40;;;;;;;3.58;1.33;;;6.80;99.90;;;;;;5094407;28;20047;-49
2023/03/28 10:21:16;;;;;;;6.00;1.00;;;6.80;99.90;;;;;;5095073;28;20107;-48
2023/03/28 10:23:48;;;;;;;6.32;1.23;;;6.80;99.90;;;;;;5092748;28;20044;-48
2023/03/28 10:26:21;;;;;;;5.05;1.00;;;6.90;99.90;;;;;;5094533;28;20116;-48
2023/03/28 10:28:51;;;;;;;6.78;1.10;;;6.90;99.90;;;;;;5094473;28;20032;-48
2023/03/28 10:31:32;;;;;;;5.75;1.00;;;7.00;99.90;;;;;;5093011;28;20048;-48
2023/03/28 10:34:01;;;;;;;4.80;1.23;;;7.00;99.90;;;;;;5092506;28;20040;-48
2023/03/28 10:36:39;;;;;;;5.05;1.40;;;7.40;99.90;;;;;;5092824;28;20493;-49
2023/03/28 10:39:28;;;;;;;6.05;1.38;;;7.60;99.90;;;;;;5093893;28;20047;-49
2023/03/28 10:41:58;;;;;;;6.03;1.48;;;7.60;99.90;;;;;;5093130;28;20048;-49
2023/03/28 10:44:39;;;;;;;5.18;1.50;;;7.40;99.90;;;;;;5093267;28;20108;-50
2023/03/28 10:47:13;;;;;;;6.60;1.50;;;7.40;99.90;;;;;;5092997;28;20040;-52
2023/03/28 10:49:46;;;;;;;7.72;1.70;;;7.40;99.90;;;;;;5092724;28;20048;-53
2023/03/28 10:52:40;;;;;;;6.20;1.67;;;7.70;99.90;;;;;;5093587;28;20130;-49
2023/03/28 10:55:16;;;;;;;6.05;1.73;;;7.60;99.90;;;;;;5093748;28;20067;-48
2023/03/28 10:57:52;;;;;;;6.60;2.08;;;7.80;99.90;;;;;;5093849;28;20040;-47
2023/03/28 11:00:30;;;;;;;6.68;1.95;;;7.70;99.90;;;;;;5093902;28;20040;-49
2023/03/28 11:03:24;;;;;;;7.10;2.00;;;7.70;99.90;;;;;;5071550;28;20044;-50
2023/03/28 11:06:08;;;;;;;7.55;2.20;;;7.50;99.90;;;;;;5072010;28;20404;-48
2023/03/28 11:08:38;;;;;;;6.78;1.60;;;7.60;99.90;;;;;;5071980;28;20420;-48
2023/03/28 11:11:45;;;;;;;5.18;1.63;;;7.40;99.90;;;;;;5073049;28;20159;-49
2023/03/28 11:14:55;;;;;;;5.50;1.90;;;7.50;99.90;;;;;;5072603;28;20056;-49
2023/03/28 11:17:39;;;;;;;8.90;2.25;;;7.60;99.90;;;;;;5071139;28;20051;-48
2023/03/28 11:20:37;;;;;;;5.68;2.10;;;7.80;99.90;;;;;;5083430;28;20570;-49
2023/03/28 11:23:16;;;;;;;5.80;2.05;;;7.60;99.90;;;;;;5079671;28;20445;-47
2023/03/28 11:26:08;;;;;;;7.00;2.00;;;7.80;99.90;;;;;;5079094;28;20400;-49
2023/03/28 11:29:02;;;;;;;10.55;2.65;;;7.90;99.90;;;;;;5072219;28;20631;-48
2023/03/28 11:32:03;;;;;;;7.70;2.88;;;8.20;99.90;;;;;;5073146;28;20037;-48
2023/03/28 11:34:36;;;;;;;6.70;2.28;;;8.40;99.90;;;;;;5072404;28;20484;-48
2023/03/28 11:37:09;;;;;;;8.77;2.30;;;8.30;99.90;;;;;;5071948;28;20129;-48
2023/03/28 11:39:54;;;;;;;6.22;2.20;;;8.50;99.90;;;;;;5072705;28;20111;-48
2023/03/28 11:42:28;;;;;;;6.63;2.47;;;8.70;99.90;;;;;;5071732;28;20503;-47
2023/03/28 11:45:26;;;;;;;7.18;2.83;;;8.70;99.90;;;;;;5072836;28;20059;-48
2023/03/28 11:48:22;;;;;;;11.20;2.72;;;8.80;99.90;;;;;;5070821;28;20048;-49
2023/03/28 11:51:02;;;;;;;8.43;2.22;;;8.90;99.90;;;;;;5078896;28;20056;-50
2023/03/28 11:53:53;;;;;;;6.03;2.20;;;8.90;99.90;;;;;;5092926;28;20128;-47
2023/03/28 11:56:51;;;;;;;8.05;2.10;;;8.80;99.90;;;;;;5085323;28;20083;-47
2023/03/28 11:59:41;;;;;;;7.68;2.42;;;8.80;99.90;;;;;;5077225;28;20052;-47
2023/03/28 12:02:29;;;;;;;7.03;2.05;;;8.90;99.90;;;;;;5092696;28;20442;-48
2023/03/28 12:05:21;;;;;;;7.78;2.70;;;8.90;99.90;;;;;;5092650;28;20495;-49
2023/03/28 12:08:11;;;;;;;9.65;2.63;;;8.90;99.90;;;;;;5092789;28;20052;-46
2023/03/28 12:10:38;;;;;;;9.80;2.75;;;8.50;99.90;;;;;;5092629;28;20139;-51
2023/03/28 12:13:32;;;;;;;6.05;2.85;;;8.40;99.90;;;;;;5092152;28;20048;-46
2023/03/28 12:16:04;;;;;;;6.50;2.17;;;8.30;99.90;;;;;;5091659;28;20051;-48
2023/03/28 12:18:33;;;;;;;6.35;2.17;;;8.50;99.90;;;;;;5092007;28;20444;-47
2023/03/28 12:21:15;;;;;;;6.65;2.25;;;9.00;99.90;;;;;;5091012;28;20120;-51
2023/03/28 12:24:14;;;;;;;7.50;1.80;;;8.80;99.90;;;;;;5091786;28;20391;-49
2023/03/28 12:27:01;;;;;;;8.70;2.28;;;8.90;99.90;;;;;;5091784;28;20040;-46
2023/03/28 12:29:56;;;;;;;6.78;2.80;;;9.10;99.90;;;;;;5091573;28;20047;-48
2023/03/28 12:32:51;;;;;;;9.85;2.95;;;9.00;99.90;;;;;;5091729;28;20059;-47
2023/03/28 12:35:53;;;;;;;7.05;2.20;;;8.70;99.90;;;;;;5091224;28;20071;-50
2023/03/28 12:38:44;;;;;;;5.78;2.60;;;8.70;99.90;;;;;;5091813;28;20201;-49
2023/03/28 12:41:23;;;;;;;8.02;2.80;;;8.60;99.90;;;;;;5091136;28;20093;-48
2023/03/28 12:44:06;;;;;;;10.38;2.90;;;8.70;99.90;;;;;;5091182;28;20453;-47
2023/03/28 12:46:45;;;;;;;6.88;2.70;;;8.90;99.90;;;;;;5091089;28;20044;-50
2023/03/28 12:49:25;;;;;;;7.05;2.50;;;8.90;99.90;;;;;;5090875;28;20036;-47
2023/03/28 12:51:58;;;;;;;9.10;2.92;;;9.10;99.90;;;;;;5091127;28;20036;-48
2023/03/28 12:54:31;;;;;;;9.93;3.22;;;9.10;99.90;;;;;;5089812;28;20052;-51
2023/03/28 12:57:06;;;;;;;8.00;2.97;;;9.20;99.90;;;;;;5091185;28;20077;-49
2023/03/28 12:59:37;;;;;;;8.02;3.05;;;8.80;99.90;;;;;;5091213;28;20040;-48
2023/03/28 13:02:17;;;;;;;8.98;3.03;;;8.70;99.90;;;;;;5091227;28;20044;-51
2023/03/28 13:05:05;;;;;;;10.45;3.00;;;9.10;99.90;;;;;;5091871;28;20044;-49
2023/03/28 13:08:08;;;;;;;12.50;3.28;;;9.00;99.90;;;;;;5091252;28;20047;-50
2023/03/28 13:10:43;;;;;;;7.40;2.85;;;9.10;99.90;;;;;;5089481;28;20075;-47
2023/03/28 13:13:18;;;;;;;6.82;2.60;;;9.20;99.90;;;;;;5090681;28;20051;-51
2023/03/28 13:16:12;;;;;;;6.38;2.50;;;9.20;99.90;;;;;;5091441;28;20047;-49
2023/03/28 13:18:46;;;;;;;7.78;2.80;;;9.00;99.90;;;;;;5091226;28;20044;-48
2023/03/28 13:21:52;;;;;;;9.10;2.75;;;8.70;99.90;;;;;;5091242;28;20089;-47
2023/03/28 13:24:24;;;;;;;6.80;2.50;;;9.10;99.90;;;;;;5091463;28;20442;-48
2023/03/28 13:26:56;;;;;;;;;;;9.00;99.90;;;;;;5092025;28;20093;-48